Atlantic, IA

9:04 PM CDT on May 29, 2015 (GMT -0500)
Nishna Hills | | Change Station
CLOSE
Current Station
Personal Weather Station
Location: Atlantic, IA
Elevation: 1273 ft
Nearby Weather Stations

Elev 1273 ft 41.40 °N, 94.99 °W | Updated 1 second ago

Overcast
Overcast
68.5 °F
Feels Like 68.5 °F
N
3.8
Wind Variable Wind from West
Gusts 9.2 mph

Today
High -- | Low -- °F
--% Chance of Precip.
Yesterday
High -- | Low -- °F
Precip. -- in
5:50 AM 8:44 PM
Waxing Gibbous, 87% visible
Pressure 29.93 in
Visibility 6.0 miles
Clouds Few 400 ft
Mostly Cloudy 3100 ft
Overcast 6000 ft
Dew Point 62 °F
Humidity 79%
Rainfall 0.11 in
Snow Depth Not available.
UV 0 out of 12
Pollen .80 out of 12
Air Quality Not available.
Flu Activity No Activity
METAR KAIO 300155Z AUTO 01014G21KT 6SM -RA FEW004 BKN031 OVC060 19/17 A2993 RMK AO2

More Conditions Fewer Conditions

Pressure 29.93 in
Visibility 6.0 miles
Clouds Few 400 ft
Mostly Cloudy 3100 ft
Overcast 6000 ft
Dew Point 62 °F
Humidity 79%
Rainfall 0.11 in
Snow Depth Not available.
UV 0 out of 12
Pollen .80 out of 12
Air Quality Not available.
Flu Activity No Activity
METAR KAIO 300155Z AUTO 01014G21KT 6SM -RA FEW004 BKN031 OVC060 19/17 A2993 RMK AO2

More Conditions Fewer Conditions

10-Day Weather Forecast

Almanac

Astronomy

May. 29, 2015 Rise Set
Actual Time
Civil Twilight
Nautical Twilight
Astronomical Twilight
Moon
Length of Visible Light
Length of Day
Tomorrow will be .
, % of the Moon is Illuminated

Today's Extremes

State Highs State Lows

Community

WunderPhotos

Upload Photos

1,825,415 photos uploaded!

WunderBlogs® & News

Nearby

Air Quality

  Air Quality AQ Index Pollutant
Not available.

Snow Depth

Station Depth Elevation

Earthquake Activity

City Distance Mag. Time & Date
Minimum magnitude displayed is 2.5.

Coastal Water Temperatures

Place Temperature

Stations

Nearby Weather Stations

Station Location Temp. Windchill Dew Point Humidity Wind Precip. Elev Updated Type